Terminal Aerodrome Forecast
Issued by NWS

Home | Current Version | Previous Version | Text Only | Print | Product List | Glossary On
Versions: 1 2 3 4 5 6 7 8 9 10 11 12 13 14 15 16 17 18 19 20 21 22
256
FTUS43 KILX 300523
TAFCMI
TAF
KCMI 300523Z 3006/3106 09013KT P6SM VCSH SCT015 BKN050
     FM300800 10013KT P6SM -TSRA SCT015 OVC035CB
     FM301000 12013KT 4SM -TSRA VCTS OVC015CB
     FM301600 13012KT 6SM BR VCSH OVC010
     FM301900 18012KT P6SM VCTS OVC035CB
     FM310400 23008KT 6SM BR VCSH OVC010=

USA.gov is the U.S. government's official web portal to all federal, state and local government web resources and services.